Relief — WDC8380 — position and weather

sailwx.info

Track history (hours):
 
Tides and Currents Weather Stations Pressure Air Temp Water Temp Dewpoint Dewpoint Depression Visibility Wind Speed Wind Dir Waves Ship Positions

Relief

Owner: VIRGINIA PILOT BOAT CORPORATION, VIRGINIA BEACH, VA. More information available from US FCC via Universal Licensing System and Coast Guard Vessel Documentation Center.

Last reported at 2018-Jan-20 09:56 UTC. Time now 2018-Jan-20 13:28 UTC.
Position N 46°01' W 122°51'.

Length 13 m; draft 1 m.

Type: Pilot. MMSI: 367086140.

Date/timePositionNaut miles runAvg speedWind from/ knotsBaromVisibWave heightAir tempDewpointWater temp
2018-Jan-20 09:56N 46°01' W 122°51'0 0.0
2018-Jan-20 01:42N 46°01' W 122°51'0 0.5
2018-Jan-20 01:30N 46°01' W 122°51'0 0.2
2018-Jan-20 01:00N 46°01' W 122°51'0 0.0
2018-Jan-20 00:09N 46°01' W 122°51'0 0.0
2018-Jan-19 23:45N 46°01' W 122°51'0 0.0
2018-Jan-19 23:30N 46°01' W 122°51'0 0.1
2018-Jan-19 23:00N 46°01' W 122°51'0 0.0
2018-Jan-19 18:04N 46°01' W 122°51'0 0.6
2018-Jan-19 18:00N 46°01' W 122°51'0 0.0
2018-Jan-19 17:17N 46°01' W 122°51'0 0.2
2018-Jan-19 17:00N 46°01' W 122°51'3 6.8
2018-Jan-19 16:31N 46°04' W 122°53'1121.6
2018-Jan-19 16:01N 46°10' W 123°06'1020.5
2018-Jan-19 15:30N 46°04' W 122°53'4 1.7
2018-Jan-19 13:14N 46°01' W 122°51'0 0.0
2018-Jan-19 12:53N 46°01' W 122°51'0 0.0
2018-Jan-19 10:12N 46°01' W 122°51'0 0.0
2018-Jan-19 08:45N 46°01' W 122°51'0 0.0
2018-Jan-19 08:30N 46°01' W 122°51'0 0.0
2018-Jan-19 05:14N 46°01' W 122°51'0 0.0
2018-Jan-19 02:26N 46°01' W 122°51'0 0.0
2018-Jan-19 01:59N 46°01' W 122°51'0 0.1
2018-Jan-19 01:28N 46°01' W 122°51'0 0.0
2018-Jan-18 22:11N 46°01' W 122°51'2 9.8
2018-Jan-18 22:01N 46°02' W 122°53'1019.9
2018-Jan-18 21:30N 46°09' W 123°03'3 4.3
2018-Jan-18 20:49N 46°10' W 123°06'1 2.7
2018-Jan-18 20:31N 46°10' W 123°05'0 0.0
2018-Jan-18 20:00N 46°10' W 123°05'0 0.0
2018-Jan-18 19:30N 46°10' W 123°05'1 1.7
2018-Jan-18 19:01N 46°10' W 123°06'0 0.1
2018-Jan-18 18:31N 46°10' W 123°06'1 1.6
2018-Jan-18 18:01N 46°10' W 123°05'1427.7
2018-Jan-18 17:30N 46°01' W 122°51'0 0.1
2018-Jan-18 16:59N 46°01' W 122°51'0 0.0
2018-Jan-18 16:30N 46°01' W 122°51'0 0.0
2018-Jan-18 15:59N 46°01' W 122°51'0 0.0
2018-Jan-18 15:30N 46°01' W 122°51'0 0.0
2018-Jan-18 15:00N 46°01' W 122°51'0 0.0
2018-Jan-18 14:29N 46°01' W 122°51'0 0.0
2018-Jan-18 14:00N 46°01' W 122°51'0 0.0
2018-Jan-18 13:25N 46°01' W 122°51'0 0.0
2018-Jan-18 13:00N 46°01' W 122°51'0 0.0
2018-Jan-18 12:30N 46°01' W 122°51'0 0.0
2018-Jan-18 12:00N 46°01' W 122°51'0 0.0
2018-Jan-18 11:29N 46°01' W 122°51'0 0.0
2018-Jan-18 10:59N 46°01' W 122°51'0 0.0
2018-Jan-18 10:30N 46°01' W 122°51'0 0.0
2018-Jan-18 10:00N 46°01' W 122°51'0 0.0
2018-Jan-18 09:30N 46°01' W 122°51'0 0.0
2018-Jan-18 08:54N 46°01' W 122°51'0 0.0
2018-Jan-18 08:30N 46°01' W 122°51'0 0.0
2018-Jan-18 08:00N 46°01' W 122°51'0 0.0
2018-Jan-18 07:30N 46°01' W 122°51'0 0.0
2018-Jan-18 06:58N 46°01' W 122°51'0 0.0
2018-Jan-18 05:58N 46°01' W 122°51'0 0.0
2018-Jan-18 05:30N 46°01' W 122°51'0 0.0
2018-Jan-18 05:00N 46°01' W 122°51'0 0.0
2018-Jan-18 04:30N 46°01' W 122°51'0 0.0
2018-Jan-18 03:58N 46°01' W 122°51'0 0.0
2018-Jan-18 03:30N 46°01' W 122°51'0 0.0
2018-Jan-18 03:01N 46°01' W 122°51'714.9
2018-Jan-18 02:31N 46°06' W 122°58'710.6
2018-Jan-18 01:49N 46°10' W 123°06'0 0.1
2018-Jan-18 01:21N 46°10' W 123°06'411.1
2018-Jan-18 01:01N 46°08' W 123°02'4 3.8
2018-Jan-18 00:01N 46°10' W 123°06'0 0.0
2018-Jan-17 23:57N 46°10' W 123°06'  
2018-Jan-11 21:56N 46°01' W 122°51'0 0.0
2018-Jan-11 20:23N 46°01' W 122°51'411.2
2018-Jan-11 20:01N 45°57' W 122°49'612.6
2018-Jan-11 19:30N 45°50' W 122°47'612.3
2018-Jan-11 19:00N 45°44' W 122°46'610.0
2018-Jan-11 18:26N 45°39' W 122°45'0 0.0
2018-Jan-11 18:01N 45°39' W 122°45'0 0.0
2018-Jan-11 17:20N 45°39' W 122°45'0 0.0
2018-Jan-11 16:57N 45°39' W 122°45'0 0.0
2018-Jan-11 16:31N 45°39' W 122°45'0 0.0
2018-Jan-11 16:00N 45°39' W 122°45'0 0.0
2018-Jan-11 15:31N 45°39' W 122°45'0 0.0
2018-Jan-11 15:00N 45°39' W 122°45'0 0.1
2018-Jan-11 14:30N 45°39' W 122°45'0 0.1
2018-Jan-11 14:00N 45°39' W 122°45'0 0.0
2018-Jan-11 13:30N 45°39' W 122°45'0 0.0
2018-Jan-11 13:01N 45°39' W 122°45'0 0.0
2018-Jan-11 12:31N 45°39' W 122°45'0 0.0
2018-Jan-11 12:00N 45°39' W 122°45'0 0.0
2018-Jan-11 11:31N 45°39' W 122°45'0 0.0
2018-Jan-11 11:01N 45°39' W 122°45'0 0.0
2018-Jan-11 10:30N 45°39' W 122°45'0 0.0
2018-Jan-11 10:00N 45°39' W 122°45'0 0.0
2018-Jan-11 09:31N 45°39' W 122°45'0 0.0
2018-Jan-11 09:00N 45°39' W 122°45'0 0.0
2018-Jan-11 08:30N 45°39' W 122°45'0 0.0
2018-Jan-11 08:00N 45°39' W 122°45'0 0.0
2018-Jan-11 07:31N 45°39' W 122°45'0 0.0
2018-Jan-11 07:01N 45°39' W 122°45'0 0.0
2018-Jan-11 06:30N 45°39' W 122°45'0 0.0
2018-Jan-11 06:00N 45°39' W 122°45'0 0.0
2018-Jan-11 05:31N 45°39' W 122°45'0 0.0
2018-Jan-11 04:57N 45°39' W 122°45'0 0.0
2018-Jan-11 04:30N 45°39' W 122°45'0 0.0
2018-Jan-11 04:00N 45°39' W 122°45'0 0.0
2018-Jan-11 03:29N 45°39' W 122°45'0 0.0
2018-Jan-11 03:00N 45°39' W 122°45'0 0.0
2018-Jan-11 02:30N 45°39' W 122°45'0 0.0
2018-Jan-11 02:00N 45°39' W 122°45'0 0.0
2018-Jan-11 01:30N 45°39' W 122°45'0 0.0
2018-Jan-11 01:00N 45°39' W 122°45'0 0.0
2018-Jan-11 00:31N 45°39' W 122°45'0 0.0
2018-Jan-11 00:00N 45°39' W 122°45'0 0.0
2018-Jan-10 23:30N 45°39' W 122°45'0 0.0
2018-Jan-10 23:01N 45°39' W 122°45'0 0.0
2018-Jan-10 22:30N 45°39' W 122°45'0 0.0
2018-Jan-10 22:01N 45°39' W 122°45'0 0.0
2018-Jan-10 21:31N 45°39' W 122°45'0 0.0
2018-Jan-10 21:00N 45°39' W 122°45'0 0.0
2018-Jan-10 20:31N 45°39' W 122°45'0 0.0
2018-Jan-10 19:43N 45°39' W 122°45'0 0.0
2018-Jan-10 19:29N 45°39' W 122°45'0 0.0
2018-Jan-10 19:00N 45°39' W 122°45'0 0.0
2018-Jan-10 18:30N 45°39' W 122°45'0 0.0
2018-Jan-10 18:00N 45°39' W 122°45'0 0.0
2018-Jan-10 17:30N 45°39' W 122°45'0 0.0
2018-Jan-10 17:01N 45°39' W 122°45'0 0.0
2018-Jan-10 16:31N 45°39' W 122°45'0 0.0
2018-Jan-10 16:00N 45°39' W 122°45'0 0.0
2018-Jan-10 15:30N 45°39' W 122°45'0 0.0
2018-Jan-10 15:01N 45°39' W 122°45'0 0.0
2018-Jan-10 14:31N 45°39' W 122°45'0 0.0
2018-Jan-10 14:00N 45°39' W 122°45'0 0.0
2018-Jan-10 13:22N 45°39' W 122°45'0 0.0
2018-Jan-10 13:01N 45°39' W 122°45'0 0.0
2018-Jan-10 12:30N 45°39' W 122°45'0 0.0
2018-Jan-10 12:01N 45°39' W 122°45'0 0.0
2018-Jan-10 11:30N 45°39' W 122°45'0 0.0
2018-Jan-10 11:01N 45°39' W 122°45'0 0.0
2018-Jan-10 10:30N 45°39' W 122°45'0 0.0
2018-Jan-10 10:00N 45°39' W 122°45'  
Track history (hours):
 
Tides and Currents Weather Stations Pressure Air Temp Water Temp Dewpoint Dewpoint Depression Visibility Wind Speed Wind Dir Waves Ship Positions

Relief

Owner: VIRGINIA PILOT BOAT CORPORATION, VIRGINIA BEACH, VA. More information available from US FCC via Universal Licensing System and Coast Guard Vessel Documentation Center.

Last reported at 2018-Jan-20 09:56 UTC. Time now 2018-Jan-20 13:28 UTC.
Position N 46°01' W 122°51'.

Length 13 m; draft 1 m.

Type: Pilot. MMSI: 367086140.

Date/timePositionNaut miles runAvg speedWind from/ knotsBaromVisibWave heightAir tempDewpointWater temp
2018-Jan-20 09:56N 46°01' W 122°51'0 0.0
2018-Jan-20 01:42N 46°01' W 122°51'0 0.5
2018-Jan-20 01:30N 46°01' W 122°51'0 0.2
2018-Jan-20 01:00N 46°01' W 122°51'0 0.0
2018-Jan-20 00:09N 46°01' W 122°51'0 0.0
2018-Jan-19 23:45N 46°01' W 122°51'0 0.0
2018-Jan-19 23:30N 46°01' W 122°51'0 0.1
2018-Jan-19 23:00N 46°01' W 122°51'0 0.0
2018-Jan-19 18:04N 46°01' W 122°51'0 0.6
2018-Jan-19 18:00N 46°01' W 122°51'0 0.0
2018-Jan-19 17:17N 46°01' W 122°51'0 0.2
2018-Jan-19 17:00N 46°01' W 122°51'3 6.8
2018-Jan-19 16:31N 46°04' W 122°53'1121.6
2018-Jan-19 16:01N 46°10' W 123°06'1020.5
2018-Jan-19 15:30N 46°04' W 122°53'4 1.7
2018-Jan-19 13:14N 46°01' W 122°51'0 0.0
2018-Jan-19 12:53N 46°01' W 122°51'0 0.0
2018-Jan-19 10:12N 46°01' W 122°51'0 0.0
2018-Jan-19 08:45N 46°01' W 122°51'0 0.0
2018-Jan-19 08:30N 46°01' W 122°51'0 0.0
2018-Jan-19 05:14N 46°01' W 122°51'0 0.0
2018-Jan-19 02:26N 46°01' W 122°51'0 0.0
2018-Jan-19 01:59N 46°01' W 122°51'0 0.1
2018-Jan-19 01:28N 46°01' W 122°51'0 0.0
2018-Jan-18 22:11N 46°01' W 122°51'2 9.8
2018-Jan-18 22:01N 46°02' W 122°53'1019.9
2018-Jan-18 21:30N 46°09' W 123°03'3 4.3
2018-Jan-18 20:49N 46°10' W 123°06'1 2.7
2018-Jan-18 20:31N 46°10' W 123°05'0 0.0
2018-Jan-18 20:00N 46°10' W 123°05'0 0.0
2018-Jan-18 19:30N 46°10' W 123°05'1 1.7
2018-Jan-18 19:01N 46°10' W 123°06'0 0.1
2018-Jan-18 18:31N 46°10' W 123°06'1 1.6
2018-Jan-18 18:01N 46°10' W 123°05'1427.7
2018-Jan-18 17:30N 46°01' W 122°51'0 0.1
2018-Jan-18 16:59N 46°01' W 122°51'0 0.0
2018-Jan-18 16:30N 46°01' W 122°51'0 0.0
2018-Jan-18 15:59N 46°01' W 122°51'0 0.0
2018-Jan-18 15:30N 46°01' W 122°51'0 0.0
2018-Jan-18 15:00N 46°01' W 122°51'0 0.0
2018-Jan-18 14:29N 46°01' W 122°51'0 0.0
2018-Jan-18 14:00N 46°01' W 122°51'0 0.0
2018-Jan-18 13:25N 46°01' W 122°51'0 0.0
2018-Jan-18 13:00N 46°01' W 122°51'0 0.0
2018-Jan-18 12:30N 46°01' W 122°51'0 0.0
2018-Jan-18 12:00N 46°01' W 122°51'0 0.0
2018-Jan-18 11:29N 46°01' W 122°51'0 0.0
2018-Jan-18 10:59N 46°01' W 122°51'0 0.0
2018-Jan-18 10:30N 46°01' W 122°51'0 0.0
2018-Jan-18 10:00N 46°01' W 122°51'0 0.0
2018-Jan-18 09:30N 46°01' W 122°51'0 0.0
2018-Jan-18 08:54N 46°01' W 122°51'0 0.0
2018-Jan-18 08:30N 46°01' W 122°51'0 0.0
2018-Jan-18 08:00N 46°01' W 122°51'0 0.0
2018-Jan-18 07:30N 46°01' W 122°51'0 0.0
2018-Jan-18 06:58N 46°01' W 122°51'0 0.0
2018-Jan-18 05:58N 46°01' W 122°51'0 0.0
2018-Jan-18 05:30N 46°01' W 122°51'0 0.0
2018-Jan-18 05:00N 46°01' W 122°51'0 0.0
2018-Jan-18 04:30N 46°01' W 122°51'0 0.0
2018-Jan-18 03:58N 46°01' W 122°51'0 0.0
2018-Jan-18 03:30N 46°01' W 122°51'0 0.0
2018-Jan-18 03:01N 46°01' W 122°51'714.9
2018-Jan-18 02:31N 46°06' W 122°58'710.6
2018-Jan-18 01:49N 46°10' W 123°06'0 0.1
2018-Jan-18 01:21N 46°10' W 123°06'411.1
2018-Jan-18 01:01N 46°08' W 123°02'4 3.8
2018-Jan-18 00:01N 46°10' W 123°06'0 0.0
2018-Jan-17 23:57N 46°10' W 123°06'  
2018-Jan-11 21:56N 46°01' W 122°51'0 0.0
2018-Jan-11 20:23N 46°01' W 122°51'411.2
2018-Jan-11 20:01N 45°57' W 122°49'612.6
2018-Jan-11 19:30N 45°50' W 122°47'612.3
2018-Jan-11 19:00N 45°44' W 122°46'610.0
2018-Jan-11 18:26N 45°39' W 122°45'0 0.0
2018-Jan-11 18:01N 45°39' W 122°45'0 0.0
2018-Jan-11 17:20N 45°39' W 122°45'0 0.0
2018-Jan-11 16:57N 45°39' W 122°45'0 0.0
2018-Jan-11 16:31N 45°39' W 122°45'0 0.0
2018-Jan-11 16:00N 45°39' W 122°45'0 0.0
2018-Jan-11 15:31N 45°39' W 122°45'0 0.0
2018-Jan-11 15:00N 45°39' W 122°45'0 0.1
2018-Jan-11 14:30N 45°39' W 122°45'0 0.1
2018-Jan-11 14:00N 45°39' W 122°45'0 0.0
2018-Jan-11 13:30N 45°39' W 122°45'0 0.0
2018-Jan-11 13:01N 45°39' W 122°45'0 0.0
2018-Jan-11 12:31N 45°39' W 122°45'0 0.0
2018-Jan-11 12:00N 45°39' W 122°45'0 0.0
2018-Jan-11 11:31N 45°39' W 122°45'0 0.0
2018-Jan-11 11:01N 45°39' W 122°45'0 0.0
2018-Jan-11 10:30N 45°39' W 122°45'0 0.0
2018-Jan-11 10:00N 45°39' W 122°45'0 0.0
2018-Jan-11 09:31N 45°39' W 122°45'0 0.0
2018-Jan-11 09:00N 45°39' W 122°45'0 0.0
2018-Jan-11 08:30N 45°39' W 122°45'0 0.0
2018-Jan-11 08:00N 45°39' W 122°45'0 0.0
2018-Jan-11 07:31N 45°39' W 122°45'0 0.0
2018-Jan-11 07:01N 45°39' W 122°45'0 0.0
2018-Jan-11 06:30N 45°39' W 122°45'0 0.0
2018-Jan-11 06:00N 45°39' W 122°45'0 0.0
2018-Jan-11 05:31N 45°39' W 122°45'0 0.0
2018-Jan-11 04:57N 45°39' W 122°45'0 0.0
2018-Jan-11 04:30N 45°39' W 122°45'0 0.0
2018-Jan-11 04:00N 45°39' W 122°45'0 0.0
2018-Jan-11 03:29N 45°39' W 122°45'0 0.0
2018-Jan-11 03:00N 45°39' W 122°45'0 0.0
2018-Jan-11 02:30N 45°39' W 122°45'0 0.0
2018-Jan-11 02:00N 45°39' W 122°45'0 0.0
2018-Jan-11 01:30N 45°39' W 122°45'0 0.0
2018-Jan-11 01:00N 45°39' W 122°45'0 0.0
2018-Jan-11 00:31N 45°39' W 122°45'0 0.0
2018-Jan-11 00:00N 45°39' W 122°45'0 0.0
2018-Jan-10 23:30N 45°39' W 122°45'0 0.0
2018-Jan-10 23:01N 45°39' W 122°45'0 0.0
2018-Jan-10 22:30N 45°39' W 122°45'0 0.0
2018-Jan-10 22:01N 45°39' W 122°45'0 0.0
2018-Jan-10 21:31N 45°39' W 122°45'0 0.0
2018-Jan-10 21:00N 45°39' W 122°45'0 0.0
2018-Jan-10 20:31N 45°39' W 122°45'0 0.0
2018-Jan-10 19:43N 45°39' W 122°45'0 0.0
2018-Jan-10 19:29N 45°39' W 122°45'0 0.0
2018-Jan-10 19:00N 45°39' W 122°45'0 0.0
2018-Jan-10 18:30N 45°39' W 122°45'0 0.0
2018-Jan-10 18:00N 45°39' W 122°45'0 0.0
2018-Jan-10 17:30N 45°39' W 122°45'0 0.0
2018-Jan-10 17:01N 45°39' W 122°45'0 0.0
2018-Jan-10 16:31N 45°39' W 122°45'0 0.0
2018-Jan-10 16:00N 45°39' W 122°45'0 0.0
2018-Jan-10 15:30N 45°39' W 122°45'0 0.0
2018-Jan-10 15:01N 45°39' W 122°45'0 0.0
2018-Jan-10 14:31N 45°39' W 122°45'0 0.0
2018-Jan-10 14:00N 45°39' W 122°45'0 0.0
2018-Jan-10 13:22N 45°39' W 122°45'0 0.0
2018-Jan-10 13:01N 45°39' W 122°45'0 0.0
2018-Jan-10 12:30N 45°39' W 122°45'0 0.0
2018-Jan-10 12:01N 45°39' W 122°45'0 0.0
2018-Jan-10 11:30N 45°39' W 122°45'0 0.0
2018-Jan-10 11:01N 45°39' W 122°45'0 0.0
2018-Jan-10 10:30N 45°39' W 122°45'0 0.0
2018-Jan-10 10:00N 45°39' W 122°45'  

Dump ship's entire track history